Rechercher aéroport 
image banner adimage banner adimage banner ad
image banner ad

CL82 - Los Robles Rgnl Medical Center

Situé à Thousand Oaks, United States

ICAO - CL82, IATA -

Données fournies par Airmate  

Information générale

Coordonnées: N34°12'25" W118°52'59"
Élévation : 760 feet MSL.
Variation magnétique : 14° East
Voir autres Aéroports à California

Données opérationnelles

Special qualification required
Heure actuelle UTC:
Heure actuelle locale:
Météo à : KCMA - Camarillo ( 19 km )
METAR: KCMA 300055Z 27009KT 10SM CLR 22/14 A2986 RMK AO2 SLP120 T02170144
TAF: KCMA 292348Z 3000/3024 25010KT P6SM SKC FM300300 VRB03KT P6SM SKC FM300900 VRB03KT 2SM BR OVC004 FM301700 27005KT P6SM SCT008 FM301900 27011KT P6SM SKC
Voir NOTAMs / SUP AIP / TFR affectant cet aéroport [VIEW]
Fréquences de communication: [VIEW]

Pistes:

Coordonnées de l'aéroport

Adresse: Thousand Oaks United States

Vue satellite de CL82